sensor_id;sensor_type;location;lat;lon;timestamp;pressure;altitude;pressure_sealevel;temperature;humidity
62680;BME280;74249;40.528;44.706;2023-11-21T00:01:34;78961.47;;;20.23;39.39
62680;BME280;74249;40.528;44.706;2023-11-21T00:03:35;78967.50;;;20.22;39.38
62680;BME280;74249;40.528;44.706;2023-11-21T00:05:36;78970.84;;;20.20;39.37
62680;BME280;74249;40.528;44.706;2023-11-21T00:07:37;78960.81;;;20.19;39.26
62680;BME280;74249;40.528;44.706;2023-11-21T00:09:37;78955.50;;;20.15;39.28
62680;BME280;74249;40.528;44.706;2023-11-21T00:11:38;78966.19;;;20.12;39.45
62680;BME280;74249;40.528;44.706;2023-11-21T00:13:39;78963.50;;;20.12;39.73
62680;BME280;74249;40.528;44.706;2023-11-21T00:15:39;78957.53;;;20.12;39.54
62680;BME280;74249;40.528;44.706;2023-11-21T00:17:40;78972.19;;;20.11;39.40
62680;BME280;74249;40.528;44.706;2023-11-21T00:19:42;78976.19;;;20.10;39.42
62680;BME280;74249;40.528;44.706;2023-11-21T00:21:43;78965.56;;;20.06;39.52
62680;BME280;74249;40.528;44.706;2023-11-21T00:23:45;78978.84;;;20.08;39.36
62680;BME280;74249;40.528;44.706;2023-11-21T00:25:45;78966.19;;;20.06;39.48
62680;BME280;74249;40.528;44.706;2023-11-21T00:27:46;78981.56;;;20.06;39.27
62680;BME280;74249;40.528;44.706;2023-11-21T00:29:46;78990.22;;;20.04;39.31
62680;BME280;74249;40.528;44.706;2023-11-21T00:31:47;78984.22;;;20.04;39.38
62680;BME280;74249;40.528;44.706;2023-11-21T00:33:48;78996.22;;;20.03;39.26
62680;BME280;74249;40.528;44.706;2023-11-21T00:35:49;78993.56;;;20.03;39.29
62680;BME280;74249;40.528;44.706;2023-11-21T00:37:49;79002.22;;;20.01;39.26
62680;BME280;74249;40.528;44.706;2023-11-21T00:39:50;78994.91;;;19.97;39.26
62680;BME280;74249;40.528;44.706;2023-11-21T00:41:51;78992.22;;;20.00;39.20
62680;BME280;74249;40.528;44.706;2023-11-21T00:43:52;79004.91;;;19.99;39.23
62680;BME280;74249;40.528;44.706;2023-11-21T00:45:52;78992.22;;;19.97;39.13
62680;BME280;74249;40.528;44.706;2023-11-21T00:47:53;79005.56;;;20.00;39.13
62680;BME280;74249;40.528;44.706;2023-11-21T00:49:54;79009.56;;;19.96;39.10
62680;BME280;74249;40.528;44.706;2023-11-21T00:51:55;78996.88;;;19.97;39.00
62680;BME280;74249;40.528;44.706;2023-11-21T00:53:55;79006.91;;;19.96;39.15
62680;BME280;74249;40.528;44.706;2023-11-21T00:55:56;79014.91;;;19.96;38.97
62680;BME280;74249;40.528;44.706;2023-11-21T00:57:57;79016.88;;;19.96;38.87
62680;BME280;74249;40.528;44.706;2023-11-21T00:59:58;79019.56;;;19.94;38.87
62680;BME280;74249;40.528;44.706;2023-11-21T01:01:59;79025.56;;;19.92;38.97
62680;BME280;74249;40.528;44.706;2023-11-21T01:04:01;79020.22;;;19.92;39.04
62680;BME280;74249;40.528;44.706;2023-11-21T01:06:03;79018.91;;;19.91;38.89
62680;BME280;74249;40.528;44.706;2023-11-21T01:08:04;79022.91;;;19.90;39.04
62680;BME280;74249;40.528;44.706;2023-11-21T01:10:06;79024.25;;;19.91;38.85
62680;BME280;74249;40.528;44.706;2023-11-21T01:12:08;79022.91;;;19.90;38.84
62680;BME280;74249;40.528;44.706;2023-11-21T01:14:08;79026.91;;;19.89;38.83
62680;BME280;74249;40.528;44.706;2023-11-21T01:16:11;79032.25;;;19.89;38.76
62680;BME280;74249;40.528;44.706;2023-11-21T01:18:11;79034.22;;;19.89;38.93
62680;BME280;74249;40.528;44.706;2023-11-21T01:20:12;79030.25;;;19.86;38.91
62680;BME280;74249;40.528;44.706;2023-11-21T01:22:13;79042.25;;;19.87;38.98
62680;BME280;74249;40.528;44.706;2023-11-21T01:24:13;79048.25;;;19.87;39.00
62680;BME280;74249;40.528;44.706;2023-11-21T01:26:14;79046.91;;;19.82;38.83
62680;BME280;74249;40.528;44.706;2023-11-21T01:28:14;79058.91;;;19.87;38.79
62680;BME280;74249;40.528;44.706;2023-11-21T01:30:15;79051.59;;;19.86;38.87
62680;BME280;74249;40.528;44.706;2023-11-21T01:32:16;79062.91;;;19.86;38.78
62680;BME280;74249;40.528;44.706;2023-11-21T01:34:17;79044.25;;;19.84;38.78
62680;BME280;74249;40.528;44.706;2023-11-21T01:36:17;79055.59;;;19.85;38.72
62680;BME280;74249;40.528;44.706;2023-11-21T01:38:18;79054.94;;;19.84;38.78
62680;BME280;74249;40.528;44.706;2023-11-21T01:40:18;79061.56;;;19.85;38.66
62680;BME280;74249;40.528;44.706;2023-11-21T01:42:19;79063.59;;;19.85;38.86
62680;BME280;74249;40.528;44.706;2023-11-21T01:44:20;79070.22;;;19.84;38.58
62680;BME280;74249;40.528;44.706;2023-11-21T01:46:21;79076.91;;;19.85;38.66
62680;BME280;74249;40.528;44.706;2023-11-21T01:48:27;79078.25;;;19.86;38.74
62680;BME280;74249;40.528;44.706;2023-11-21T01:50:28;79082.22;;;19.82;38.55
62680;BME280;74249;40.528;44.706;2023-11-21T01:52:28;79074.25;;;19.85;38.65
62680;BME280;74249;40.528;44.706;2023-11-21T01:54:29;79086.91;;;19.84;38.52
62680;BME280;74249;40.528;44.706;2023-11-21T01:56:33;79092.22;;;19.82;38.59
62680;BME280;74249;40.528;44.706;2023-11-21T01:58:34;79094.91;;;19.84;38.59
62680;BME280;74249;40.528;44.706;2023-11-21T02:00:34;79098.22;;;19.82;38.48
62680;BME280;74249;40.528;44.706;2023-11-21T02:02:35;79100.88;;;19.82;38.52
62680;BME280;74249;40.528;44.706;2023-11-21T02:04:36;79101.56;;;19.83;38.30
62680;BME280;74249;40.528;44.706;2023-11-21T02:06:37;79104.22;;;19.83;38.76
62680;BME280;74249;40.528;44.706;2023-11-21T02:08:39;79110.22;;;19.81;38.34
62680;BME280;74249;40.528;44.706;2023-11-21T02:10:39;79110.88;;;19.82;38.43
62680;BME280;74249;40.528;44.706;2023-11-21T02:12:42;79112.88;;;19.81;38.57
62680;BME280;74249;40.528;44.706;2023-11-21T02:14:43;79116.88;;;19.82;38.37
62680;BME280;74249;40.528;44.706;2023-11-21T02:16:44;79116.22;;;19.82;38.38
62680;BME280;74249;40.528;44.706;2023-11-21T02:18:48;79116.88;;;19.80;38.32
62680;BME280;74249;40.528;44.706;2023-11-21T02:20:49;79124.88;;;19.80;38.34
62680;BME280;74249;40.528;44.706;2023-11-21T02:22:53;79128.88;;;19.79;38.31
62680;BME280;74249;40.528;44.706;2023-11-21T02:25:00;79129.56;;;19.82;38.27
62680;BME280;74249;40.528;44.706;2023-11-21T02:27:01;79131.53;;;19.81;38.19
62680;BME280;74249;40.528;44.706;2023-11-21T02:29:02;79132.22;;;19.80;38.24
62680;BME280;74249;40.528;44.706;2023-11-21T02:31:05;79129.56;;;19.76;38.28
62680;BME280;74249;40.528;44.706;2023-11-21T02:33:06;79128.88;;;19.77;38.28
62680;BME280;74249;40.528;44.706;2023-11-21T02:35:07;79135.53;;;19.76;38.23
62680;BME280;74249;40.528;44.706;2023-11-21T02:37:08;79143.53;;;19.78;38.13
62680;BME280;74249;40.528;44.706;2023-11-21T02:39:12;79134.88;;;19.78;38.22
62680;BME280;74249;40.528;44.706;2023-11-21T02:41:13;79137.53;;;19.78;38.24
62680;BME280;74249;40.528;44.706;2023-11-21T02:43:14;79142.22;;;19.77;38.18
62680;BME280;74249;40.528;44.706;2023-11-21T02:45:15;79153.53;;;19.78;38.26
62680;BME280;74249;40.528;44.706;2023-11-21T02:47:16;79154.88;;;19.77;38.19
62680;BME280;74249;40.528;44.706;2023-11-21T02:49:17;79162.22;;;19.78;38.23
62680;BME280;74249;40.528;44.706;2023-11-21T02:51:18;79158.19;;;19.75;38.20
62680;BME280;74249;40.528;44.706;2023-11-21T02:53:18;79161.53;;;19.78;38.45
62680;BME280;74249;40.528;44.706;2023-11-21T02:55:19;79157.56;;;19.77;38.28
62680;BME280;74249;40.528;44.706;2023-11-21T02:57:19;79166.22;;;19.77;38.35
62680;BME280;74249;40.528;44.706;2023-11-21T02:59:20;79164.19;;;19.78;38.18
62680;BME280;74249;40.528;44.706;2023-11-21T03:01:20;79164.88;;;19.78;38.16
62680;BME280;74249;40.528;44.706;2023-11-21T03:03:21;79162.22;;;19.78;38.23
62680;BME280;74249;40.528;44.706;2023-11-21T03:05:24;79158.88;;;19.78;38.18
62680;BME280;74249;40.528;44.706;2023-11-21T03:07:24;79150.22;;;19.77;38.36
62680;BME280;74249;40.528;44.706;2023-11-21T03:09:25;79160.22;;;19.77;38.28
62680;BME280;74249;40.528;44.706;2023-11-21T03:11:27;79168.22;;;19.77;37.95
62680;BME280;74249;40.528;44.706;2023-11-21T03:13:27;79180.88;;;19.76;38.06
62680;BME280;74249;40.528;44.706;2023-11-21T03:15:28;79170.19;;;19.74;38.20
62680;BME280;74249;40.528;44.706;2023-11-21T03:17:29;79174.88;;;19.76;38.11
62680;BME280;74249;40.528;44.706;2023-11-21T03:19:29;79181.53;;;19.75;38.02
62680;BME280;74249;40.528;44.706;2023-11-21T03:21:30;79185.53;;;19.76;37.89
62680;BME280;74249;40.528;44.706;2023-11-21T03:23:31;79185.53;;;19.76;38.03
62680;BME280;74249;40.528;44.706;2023-11-21T03:25:32;79176.19;;;19.73;38.01
62680;BME280;74249;40.528;44.706;2023-11-21T03:27:32;79185.53;;;19.74;38.02
62680;BME280;74249;40.528;44.706;2023-11-21T03:29:33;79184.84;;;19.73;38.05
62680;BME280;74249;40.528;44.706;2023-11-21T03:31:33;79184.19;;;19.75;37.96
62680;BME280;74249;40.528;44.706;2023-11-21T03:33:34;79192.19;;;19.75;37.85
62680;BME280;74249;40.528;44.706;2023-11-21T03:35:36;79186.84;;;19.73;37.92
62680;BME280;74249;40.528;44.706;2023-11-21T03:37:36;79194.84;;;19.73;37.94
62680;BME280;74249;40.528;44.706;2023-11-21T03:39:41;79200.19;;;19.73;38.00
62680;BME280;74249;40.528;44.706;2023-11-21T03:41:41;79186.16;;;19.66;37.90
62680;BME280;74249;40.528;44.706;2023-11-21T03:43:42;79196.19;;;19.72;38.14
62680;BME280;74249;40.528;44.706;2023-11-21T03:45:43;79206.84;;;19.74;38.01
62680;BME280;74249;40.528;44.706;2023-11-21T03:47:43;79206.84;;;19.72;37.94
62680;BME280;74249;40.528;44.706;2023-11-21T03:49:44;79217.50;;;19.72;38.08
62680;BME280;74249;40.528;44.706;2023-11-21T03:51:44;79212.84;;;19.72;38.07
62680;BME280;74249;40.528;44.706;2023-11-21T03:53:45;79212.19;;;19.74;38.04
62680;BME280;74249;40.528;44.706;2023-11-21T03:55:45;79201.50;;;19.72;37.96
62680;BME280;74249;40.528;44.706;2023-11-21T03:57:46;79215.53;;;19.72;38.01
62680;BME280;74249;40.528;44.706;2023-11-21T03:59:46;79225.53;;;19.74;37.90
62680;BME280;74249;40.528;44.706;2023-11-21T04:01:47;79221.50;;;19.73;37.84
62680;BME280;74249;40.528;44.706;2023-11-21T04:03:48;79235.50;;;19.73;37.77
62680;BME280;74249;40.528;44.706;2023-11-21T04:05:49;79241.50;;;19.72;37.92
62680;BME280;74249;40.528;44.706;2023-11-21T04:07:50;79238.81;;;19.70;37.95
62680;BME280;74249;40.528;44.706;2023-11-21T04:09:51;79248.84;;;19.71;37.86
62680;BME280;74249;40.528;44.706;2023-11-21T04:11:52;79245.50;;;19.71;37.77
62680;BME280;74249;40.528;44.706;2023-11-21T04:13:53;79248.16;;;19.71;37.81
62680;BME280;74249;40.528;44.706;2023-11-21T04:15:53;79248.16;;;19.69;37.63
62680;BME280;74249;40.528;44.706;2023-11-21T04:17:54;79258.19;;;19.72;37.84
62680;BME280;74249;40.528;44.706;2023-11-21T04:19:54;79254.19;;;19.71;37.85
62680;BME280;74249;40.528;44.706;2023-11-21T04:21:55;79253.50;;;19.71;37.65
62680;BME280;74249;40.528;44.706;2023-11-21T04:23:55;79246.81;;;19.70;37.69
62680;BME280;74249;40.528;44.706;2023-11-21T04:25:56;79257.50;;;19.68;37.54
62680;BME280;74249;40.528;44.706;2023-11-21T04:27:57;79260.16;;;19.70;37.60
62680;BME280;74249;40.528;44.706;2023-11-21T04:29:58;79264.16;;;19.71;37.50
62680;BME280;74249;40.528;44.706;2023-11-21T04:31:58;79253.50;;;19.69;37.73
62680;BME280;74249;40.528;44.706;2023-11-21T04:33:59;79253.50;;;19.69;37.59
62680;BME280;74249;40.528;44.706;2023-11-21T04:36:00;79260.16;;;19.68;37.57
62680;BME280;74249;40.528;44.706;2023-11-21T04:38:00;79260.16;;;19.70;37.71
62680;BME280;74249;40.528;44.706;2023-11-21T04:40:01;79259.50;;;19.69;37.73
62680;BME280;74249;40.528;44.706;2023-11-21T04:42:03;79268.84;;;19.70;37.67
62680;BME280;74249;40.528;44.706;2023-11-21T04:44:07;79258.81;;;19.64;37.61
62680;BME280;74249;40.528;44.706;2023-11-21T04:46:08;79262.81;;;19.70;37.63
62680;BME280;74249;40.528;44.706;2023-11-21T04:48:09;79259.50;;;19.69;37.59
62680;BME280;74249;40.528;44.706;2023-11-21T04:50:10;79264.81;;;19.69;37.75
62680;BME280;74249;40.528;44.706;2023-11-21T04:52:11;79276.16;;;19.70;37.90
62680;BME280;74249;40.528;44.706;2023-11-21T04:54:11;79268.84;;;19.70;37.75
62680;BME280;74249;40.528;44.706;2023-11-21T04:56:12;79275.50;;;19.69;37.66
62680;BME280;74249;40.528;44.706;2023-11-21T04:58:12;79278.16;;;19.69;37.78
62680;BME280;74249;40.528;44.706;2023-11-21T05:00:13;79277.50;;;19.69;37.44
62680;BME280;74249;40.528;44.706;2023-11-21T05:02:14;79289.50;;;19.68;37.48
62680;BME280;74249;40.528;44.706;2023-11-21T05:04:14;79294.13;;;19.67;37.66
62680;BME280;74249;40.528;44.706;2023-11-21T05:06:15;79290.81;;;19.66;37.62
62680;BME280;74249;40.528;44.706;2023-11-21T05:08:16;79292.78;;;19.66;38.00
62680;BME280;74249;40.528;44.706;2023-11-21T05:10:17;79296.13;;;19.64;37.92
62680;BME280;74249;40.528;44.706;2023-11-21T05:12:18;79288.13;;;19.62;37.71
62680;BME280;74249;40.528;44.706;2023-11-21T05:14:18;79299.47;;;19.63;37.53
62680;BME280;74249;40.528;44.706;2023-11-21T05:16:19;79306.78;;;19.60;37.64
62680;BME280;74249;40.528;44.706;2023-11-21T05:18:20;79309.44;;;19.58;37.74
62680;BME280;74249;40.528;44.706;2023-11-21T05:20:20;79309.44;;;19.54;37.93
62680;BME280;74249;40.528;44.706;2023-11-21T05:22:21;79312.09;;;19.56;37.85
62680;BME280;74249;40.528;44.706;2023-11-21T05:24:22;79318.75;;;19.53;37.94
62680;BME280;74249;40.528;44.706;2023-11-21T05:26:22;79316.06;;;19.49;37.86
62680;BME280;74249;40.528;44.706;2023-11-21T05:28:23;79317.41;;;19.50;37.65
62680;BME280;74249;40.528;44.706;2023-11-21T05:30:23;79322.72;;;19.48;38.06
62680;BME280;74249;40.528;44.706;2023-11-21T05:32:25;79321.41;;;19.47;37.83
62680;BME280;74249;40.528;44.706;2023-11-21T05:34:25;79304.72;;;19.44;37.79
62680;BME280;74249;40.528;44.706;2023-11-21T05:36:26;79322.69;;;19.44;37.79
62680;BME280;74249;40.528;44.706;2023-11-21T05:38:27;79330.03;;;19.43;37.90
62680;BME280;74249;40.528;44.706;2023-11-21T05:40:27;79324.69;;;19.41;37.78
62680;BME280;74249;40.528;44.706;2023-11-21T05:42:30;79321.34;;;19.41;38.03
62680;BME280;74249;40.528;44.706;2023-11-21T05:44:31;79324.00;;;19.39;37.85
62680;BME280;74249;40.528;44.706;2023-11-21T05:46:31;79326.00;;;19.38;37.84
62680;BME280;74249;40.528;44.706;2023-11-21T05:48:32;79327.97;;;19.36;37.79
62680;BME280;74249;40.528;44.706;2023-11-21T05:50:33;79340.66;;;19.35;37.94
62680;BME280;74249;40.528;44.706;2023-11-21T05:52:33;79344.63;;;19.34;38.04
62680;BME280;74249;40.528;44.706;2023-11-21T05:54:34;79346.63;;;19.33;37.97
62680;BME280;74249;40.528;44.706;2023-11-21T05:56:34;79341.28;;;19.31;37.85
62680;BME280;74249;40.528;44.706;2023-11-21T05:58:35;79334.59;;;19.28;38.09
62680;BME280;74249;40.528;44.706;2023-11-21T06:00:36;79335.94;;;19.29;38.03
62680;BME280;74249;40.528;44.706;2023-11-21T06:02:40;79335.94;;;19.29;38.10
62680;BME280;74249;40.528;44.706;2023-11-21T06:04:41;79339.28;;;19.28;38.04
62680;BME280;74249;40.528;44.706;2023-11-21T06:06:42;79346.59;;;19.27;38.24
62680;BME280;74249;40.528;44.706;2023-11-21T06:08:42;79345.94;;;19.27;38.12
62680;BME280;74249;40.528;44.706;2023-11-21T06:10:43;79347.28;;;19.28;38.05
62680;BME280;74249;40.528;44.706;2023-11-21T06:12:44;79347.25;;;19.26;38.19
62680;BME280;74249;40.528;44.706;2023-11-21T06:14:44;79343.91;;;19.25;37.99
62680;BME280;74249;40.528;44.706;2023-11-21T06:16:45;79345.25;;;19.24;38.03
62680;BME280;74249;40.528;44.706;2023-11-21T06:18:45;79343.91;;;19.23;37.90
62680;BME280;74249;40.528;44.706;2023-11-21T06:20:46;79354.56;;;19.23;37.95
62680;BME280;74249;40.528;44.706;2023-11-21T06:22:48;79347.91;;;19.22;38.05
62680;BME280;74249;40.528;44.706;2023-11-21T06:24:50;79341.22;;;19.17;37.91
62680;BME280;74249;40.528;44.706;2023-11-21T06:26:50;79360.53;;;19.20;37.80
62680;BME280;74249;40.528;44.706;2023-11-21T06:28:51;79359.84;;;19.19;38.05
62680;BME280;74249;40.528;44.706;2023-11-21T06:30:53;79362.53;;;19.19;37.94
62680;BME280;74249;40.528;44.706;2023-11-21T06:32:53;79363.84;;;19.18;37.81
62680;BME280;74249;40.528;44.706;2023-11-21T06:34:58;79365.88;;;19.20;38.08
62680;BME280;74249;40.528;44.706;2023-11-21T06:37:01;79379.81;;;19.18;37.93
62680;BME280;74249;40.528;44.706;2023-11-21T06:39:02;79386.47;;;19.15;37.93
62680;BME280;74249;40.528;44.706;2023-11-21T06:41:07;79381.81;;;19.15;37.90
62680;BME280;74249;40.528;44.706;2023-11-21T06:43:07;79381.81;;;19.15;38.06
62680;BME280;74249;40.528;44.706;2023-11-21T06:45:08;79379.16;;;19.13;37.94
62680;BME280;74249;40.528;44.706;2023-11-21T06:47:11;79386.47;;;19.15;37.86
62680;BME280;74249;40.528;44.706;2023-11-21T06:49:11;79388.47;;;19.14;37.93
62680;BME280;74249;40.528;44.706;2023-11-21T06:51:12;79381.81;;;19.13;37.73
62680;BME280;74249;40.528;44.706;2023-11-21T06:53:13;79385.78;;;19.14;38.03
62680;BME280;74249;40.528;44.706;2023-11-21T06:55:14;79375.13;;;19.14;38.03
62680;BME280;74249;40.528;44.706;2023-11-21T06:57:15;79384.47;;;19.13;38.04
62680;BME280;74249;40.528;44.706;2023-11-21T06:59:16;79379.78;;;19.12;37.90
62680;BME280;74249;40.528;44.706;2023-11-21T07:01:16;79382.47;;;19.14;37.89
62680;BME280;74249;40.528;44.706;2023-11-21T07:03:17;79384.47;;;19.13;37.80
62680;BME280;74249;40.528;44.706;2023-11-21T07:05:20;79387.78;;;19.12;38.06
62680;BME280;74249;40.528;44.706;2023-11-21T07:07:21;79390.44;;;19.12;37.82
62680;BME280;74249;40.528;44.706;2023-11-21T07:09:22;79391.13;;;19.12;37.76
62680;BME280;74249;40.528;44.706;2023-11-21T07:11:22;79394.44;;;19.11;37.93
62680;BME280;74249;40.528;44.706;2023-11-21T07:13:23;79395.13;;;19.11;37.82
62680;BME280;74249;40.528;44.706;2023-11-21T07:15:23;79391.75;;;19.11;37.95
62680;BME280;74249;40.528;44.706;2023-11-21T07:17:26;79400.44;;;19.11;37.78
62680;BME280;74249;40.528;44.706;2023-11-21T07:19:26;79397.09;;;19.11;37.71
62680;BME280;74249;40.528;44.706;2023-11-21T07:21:27;79405.09;;;19.09;37.54
62680;BME280;74249;40.528;44.706;2023-11-21T07:23:28;79407.75;;;19.09;37.71
62680;BME280;74249;40.528;44.706;2023-11-21T07:25:28;79404.41;;;19.08;37.79
62680;BME280;74249;40.528;44.706;2023-11-21T07:27:29;79393.78;;;19.10;37.70
62680;BME280;74249;40.528;44.706;2023-11-21T07:29:30;79403.75;;;19.10;37.82
62680;BME280;74249;40.528;44.706;2023-11-21T07:31:30;79419.06;;;19.09;37.62
62680;BME280;74249;40.528;44.706;2023-11-21T07:33:34;79419.75;;;19.12;37.62
62680;BME280;74249;40.528;44.706;2023-11-21T07:35:34;79405.69;;;19.03;37.61
62680;BME280;74249;40.528;44.706;2023-11-21T07:37:35;79414.41;;;19.10;37.63
62680;BME280;74249;40.528;44.706;2023-11-21T07:39:36;79422.41;;;19.10;37.48
62680;BME280;74249;40.528;44.706;2023-11-21T07:41:36;79422.41;;;19.10;37.78
62680;BME280;74249;40.528;44.706;2023-11-21T07:43:39;79427.06;;;19.09;37.54
62680;BME280;74249;40.528;44.706;2023-11-21T07:45:40;79425.03;;;19.08;37.70
62680;BME280;74249;40.528;44.706;2023-11-21T07:47:40;79425.03;;;19.06;37.48
62680;BME280;74249;40.528;44.706;2023-11-21T07:49:41;79423.03;;;19.08;37.45
62680;BME280;74249;40.528;44.706;2023-11-21T07:51:44;79414.34;;;19.03;37.45
62680;BME280;74249;40.528;44.706;2023-11-21T07:53:44;79427.72;;;19.08;37.28
62680;BME280;74249;40.528;44.706;2023-11-21T07:55:45;79422.38;;;19.06;37.45
62680;BME280;74249;40.528;44.706;2023-11-21T07:57:47;79422.38;;;19.06;37.43
62680;BME280;74249;40.528;44.706;2023-11-21T07:59:47;79415.69;;;19.05;37.46
62680;BME280;74249;40.528;44.706;2023-11-21T08:01:48;79420.38;;;19.06;37.39
62680;BME280;74249;40.528;44.706;2023-11-21T08:03:50;79423.03;;;19.06;37.61
62680;BME280;74249;40.528;44.706;2023-11-21T08:05:52;79427.69;;;19.06;37.47
62680;BME280;74249;40.528;44.706;2023-11-21T08:07:53;79419.63;;;18.97;37.44
62680;BME280;74249;40.528;44.706;2023-11-21T08:09:54;79431.66;;;19.05;37.38
62680;BME280;74249;40.528;44.706;2023-11-21T08:11:54;79430.31;;;19.03;37.56
62680;BME280;74249;40.528;44.706;2023-11-21T08:13:55;79439.00;;;19.04;37.48
62680;BME280;74249;40.528;44.706;2023-11-21T08:15:56;79443.00;;;19.05;37.61
62680;BME280;74249;40.528;44.706;2023-11-21T08:18:01;79430.31;;;19.03;37.41
62680;BME280;74249;40.528;44.706;2023-11-21T08:20:02;79441.66;;;19.02;37.54
62680;BME280;74249;40.528;44.706;2023-11-21T08:22:04;79442.25;;;18.96;37.47
62680;BME280;74249;40.528;44.706;2023-11-21T08:24:06;79453.63;;;19.01;37.31
62680;BME280;74249;40.528;44.706;2023-11-21T08:26:06;79442.97;;;19.01;37.65
62680;BME280;74249;40.528;44.706;2023-11-21T08:28:09;79456.97;;;19.01;37.59
62680;BME280;74249;40.528;44.706;2023-11-21T08:30:10;79455.63;;;19.00;37.67
62680;BME280;74249;40.528;44.706;2023-11-21T08:32:11;79456.28;;;19.01;37.67
62680;BME280;74249;40.528;44.706;2023-11-21T08:34:12;79460.94;;;19.00;37.73
62680;BME280;74249;40.528;44.706;2023-11-21T08:36:12;79464.94;;;18.99;37.66
62680;BME280;74249;40.528;44.706;2023-11-21T08:38:13;79458.91;;;18.99;37.47
62680;BME280;74249;40.528;44.706;2023-11-21T08:40:13;79469.56;;;18.97;37.40
62680;BME280;74249;40.528;44.706;2023-11-21T08:42:16;79468.94;;;19.00;37.59
62680;BME280;74249;40.528;44.706;2023-11-21T08:44:18;79465.59;;;18.98;37.48
62680;BME280;74249;40.528;44.706;2023-11-21T08:46:18;79470.91;;;18.98;37.63
62680;BME280;74249;40.528;44.706;2023-11-21T08:48:19;79464.25;;;18.97;37.67
62680;BME280;74249;40.528;44.706;2023-11-21T08:50:20;79465.56;;;18.96;37.40
62680;BME280;74249;40.528;44.706;2023-11-21T08:52:20;79478.19;;;18.95;37.50
62680;BME280;74249;40.528;44.706;2023-11-21T08:54:23;79466.22;;;18.96;37.59
62680;BME280;74249;40.528;44.706;2023-11-21T08:56:25;79487.53;;;18.94;37.75
62680;BME280;74249;40.528;44.706;2023-11-21T08:58:26;79484.88;;;18.94;37.70
62680;BME280;74249;40.528;44.706;2023-11-21T09:00:27;79492.16;;;18.94;37.48
62680;BME280;74249;40.528;44.706;2023-11-21T09:02:27;79488.13;;;18.91;37.87
62680;BME280;74249;40.528;44.706;2023-11-21T09:04:28;79495.50;;;18.92;37.82
62680;BME280;74249;40.528;44.706;2023-11-21T09:06:28;79490.09;;;18.90;37.49
62680;BME280;74249;40.528;44.706;2023-11-21T09:08:29;79498.78;;;18.91;37.63
62680;BME280;74249;40.528;44.706;2023-11-21T09:10:30;79495.44;;;18.90;37.79
62680;BME280;74249;40.528;44.706;2023-11-21T09:12:30;79505.44;;;18.90;37.92
62680;BME280;74249;40.528;44.706;2023-11-21T09:14:32;79501.41;;;18.89;37.80
62680;BME280;74249;40.528;44.706;2023-11-21T09:16:34;79503.41;;;18.88;37.78
62680;BME280;74249;40.528;44.706;2023-11-21T09:18:34;79511.38;;;18.88;37.74
62680;BME280;74249;40.528;44.706;2023-11-21T09:20:35;79497.41;;;18.87;37.69
62680;BME280;74249;40.528;44.706;2023-11-21T09:22:35;79499.41;;;18.89;38.02
62680;BME280;74249;40.528;44.706;2023-11-21T09:24:36;79502.06;;;18.87;37.92
62680;BME280;74249;40.528;44.706;2023-11-21T09:26:37;79503.44;;;18.90;37.92
62680;BME280;74249;40.528;44.706;2023-11-21T09:28:38;79504.75;;;18.89;37.90
62680;BME280;74249;40.528;44.706;2023-11-21T09:30:39;79504.06;;;18.86;37.71
62680;BME280;74249;40.528;44.706;2023-11-21T09:32:40;79504.75;;;18.89;37.65
62680;BME280;74249;40.528;44.706;2023-11-21T09:34:41;79500.72;;;18.88;37.67
62680;BME280;74249;40.528;44.706;2023-11-21T09:36:45;79500.72;;;18.88;37.55
62680;BME280;74249;40.528;44.706;2023-11-21T09:38:45;79505.41;;;18.87;37.40
62680;BME280;74249;40.528;44.706;2023-11-21T09:40:46;79498.69;;;18.82;37.50
62680;BME280;74249;40.528;44.706;2023-11-21T09:42:52;79504.06;;;18.86;37.53
62680;BME280;74249;40.528;44.706;2023-11-21T09:45:05;79498.06;;;18.86;37.17
62680;BME280;74249;40.528;44.706;2023-11-21T09:47:09;79503.38;;;18.84;37.58
62680;BME280;74249;40.528;44.706;2023-11-21T09:49:11;79511.34;;;18.84;37.32
62680;BME280;74249;40.528;44.706;2023-11-21T09:51:14;79515.34;;;18.83;37.38
62680;BME280;74249;40.528;44.706;2023-11-21T09:53:20;79517.34;;;18.82;37.50
62680;BME280;74249;40.528;44.706;2023-11-21T09:55:27;79514.00;;;18.80;37.22
62680;BME280;74249;40.528;44.706;2023-11-21T09:57:36;79509.97;;;18.81;37.26
62680;BME280;74249;40.528;44.706;2023-11-21T09:59:37;79508.63;;;18.78;37.44
62680;BME280;74249;40.528;44.706;2023-11-21T10:01:38;79507.31;;;18.81;37.21
62680;BME280;74249;40.528;44.706;2023-11-21T10:03:41;79509.31;;;18.80;37.27
62680;BME280;74249;40.528;44.706;2023-11-21T10:05:43;79503.34;;;18.80;37.29
62680;BME280;74249;40.528;44.706;2023-11-21T10:07:46;79500.69;;;18.80;37.30
62680;BME280;74249;40.528;44.706;2023-11-21T10:09:47;79500.69;;;18.80;37.17
62680;BME280;74249;40.528;44.706;2023-11-21T10:11:51;79512.66;;;18.81;37.43
62680;BME280;74249;40.528;44.706;2023-11-21T10:13:53;79506.66;;;18.80;37.15
62680;BME280;74249;40.528;44.706;2023-11-21T10:15:54;79504.66;;;18.81;37.03
62680;BME280;74249;40.528;44.706;2023-11-21T10:17:55;79508.63;;;18.78;37.09
62680;BME280;74249;40.528;44.706;2023-11-21T10:19:56;79510.66;;;18.79;37.10
62680;BME280;74249;40.528;44.706;2023-11-21T10:21:58;79521.28;;;18.79;37.13
62680;BME280;74249;40.528;44.706;2023-11-21T10:24:02;79521.97;;;18.80;36.82
62680;BME280;74249;40.528;44.706;2023-11-21T10:26:04;79525.97;;;18.79;36.96
62680;BME280;74249;40.528;44.706;2023-11-21T10:28:04;79515.94;;;18.75;36.69
62680;BME280;74249;40.528;44.706;2023-11-21T10:30:07;79523.25;;;18.77;36.85
62680;BME280;74249;40.528;44.706;2023-11-21T10:32:12;79519.94;;;18.76;36.86
62680;BME280;74249;40.528;44.706;2023-11-21T10:36:13;79509.97;;;18.77;37.30